createdAt,value
2022-09-12T00:00:02.305Z,98456.86
2022-09-12T00:01:38.958Z,98464.52
2022-09-12T00:02:46.163Z,98467.10
2022-09-12T00:03:56.214Z,98468.81
2022-09-12T00:05:02.197Z,98470.53
2022-09-12T00:06:22.830Z,98466.33
2022-09-12T00:07:30.725Z,98475.86
2022-09-12T00:08:37.958Z,98477.89
2022-09-12T00:09:47.538Z,98481.74
2022-09-12T00:10:57.506Z,98487.52
2022-09-12T00:12:11.645Z,98492.27
2022-09-12T00:13:21.309Z,98496.94
2022-09-12T00:14:29.249Z,98501.35
2022-09-12T00:15:45.607Z,98502.13
2022-09-12T00:16:52.541Z,98502.98
2022-09-12T00:17:58.955Z,98507.42
2022-09-12T00:19:06.195Z,98508.61
2022-09-12T00:20:12.442Z,98513.00
2022-09-12T00:21:20.068Z,98517.60
2022-09-12T00:22:29.936Z,98527.05
2022-09-12T00:23:37.801Z,98539.15
2022-09-12T00:24:47.278Z,98544.31
2022-09-12T00:25:54.857Z,98550.98
2022-09-12T00:27:01.749Z,98560.66
2022-09-12T00:28:08.041Z,98569.83
2022-09-12T00:29:21.653Z,98578.00
2022-09-12T00:32:02.808Z,98584.02
2022-09-12T00:33:10.328Z,98588.21
2022-09-12T00:34:17.232Z,98589.41
2022-09-12T00:35:25.001Z,98591.28
2022-09-12T00:36:33.207Z,98596.16
2022-09-12T00:37:40.129Z,98595.30
2022-09-12T00:38:49.403Z,98594.83
2022-09-12T00:39:55.541Z,98597.61
2022-09-12T00:41:04.667Z,98593.88
2022-09-12T00:42:17.932Z,98598.75
2022-09-12T00:43:48.281Z,98600.13
2022-09-12T00:44:56.010Z,98599.30
2022-09-12T00:46:16.126Z,98603.39
2022-09-12T00:47:30.300Z,98613.66
2022-09-12T00:48:46.451Z,98615.17
2022-09-12T00:50:12.906Z,98616.79
2022-09-12T00:51:19.529Z,98620.75
2022-09-12T00:52:34.068Z,98621.61
2022-09-12T00:53:43.062Z,98628.22
2022-09-12T00:55:07.728Z,98634.11
2022-09-12T00:56:15.833Z,98637.48
2022-09-12T00:57:25.296Z,98641.74
2022-09-12T00:58:37.426Z,98647.71
2022-09-12T00:59:50.423Z,98650.70
2022-09-12T01:00:59.144Z,98651.58
2022-09-12T01:02:08.091Z,98652.19
2022-09-12T01:03:17.711Z,98645.19
2022-09-12T01:04:26.368Z,98648.04
2022-09-12T01:05:33.008Z,98650.27
2022-09-12T01:06:42.976Z,98653.42
2022-09-12T01:07:51.239Z,98653.93
2022-09-12T01:08:58.559Z,98653.16
2022-09-12T01:10:06.251Z,98653.08
2022-09-12T01:11:14.757Z,98654.40
2022-09-12T01:12:33.784Z,98653.90
2022-09-12T01:13:40.973Z,98652.38
2022-09-12T01:14:48.626Z,98657.60
2022-09-12T01:15:56.484Z,98654.06
2022-09-12T01:17:05.566Z,98653.95
2022-09-12T01:18:44.480Z,98653.36
2022-09-12T01:20:21.803Z,98649.86
2022-09-12T01:21:50.386Z,98648.14
2022-09-12T01:25:53.702Z,98639.70
2022-09-12T01:27:29.339Z,98636.48
2022-09-12T01:29:10.488Z,98633.69
2022-09-12T01:30:38.696Z,98635.88
2022-09-12T01:32:11.851Z,98640.05
2022-09-12T01:33:34.870Z,98643.48
2022-09-12T01:35:29.711Z,98648.60
2022-09-12T01:37:03.632Z,98651.99
2022-09-12T01:38:33.261Z,98653.27
2022-09-12T01:40:18.360Z,98651.41
2022-09-12T01:41:41.093Z,98657.42
2022-09-12T01:43:11.658Z,98666.51
2022-09-12T01:44:28.137Z,98676.80
2022-09-12T01:45:48.601Z,98685.19
2022-09-12T01:47:23.159Z,98689.99
2022-09-12T01:48:36.874Z,98696.80
2022-09-12T01:49:47.925Z,98704.45
2022-09-12T01:50:59.320Z,98706.74
2022-09-12T01:52:21.049Z,98710.46
2022-09-12T01:53:52.997Z,98708.83
2022-09-12T01:55:22.078Z,98713.19
2022-09-12T01:56:30.359Z,98707.60
2022-09-12T01:57:54.342Z,98707.77
2022-09-12T01:59:13.655Z,98707.48
2022-09-12T02:00:22.657Z,98705.67
2022-09-12T02:01:33.049Z,98700.13
2022-09-12T02:02:46.606Z,98696.02
2022-09-12T02:03:59.825Z,98691.59
2022-09-12T02:05:39.620Z,98690.66
2022-09-12T02:07:24.952Z,98687.76
2022-09-12T02:09:19.113Z,98683.75
2022-09-12T02:15:35.236Z,98686.25
2022-09-12T02:17:05.434Z,98687.52
2022-09-12T02:18:23.191Z,98692.17
2022-09-12T02:20:07.058Z,98690.93
2022-09-12T02:21:13.913Z,98688.42
2022-09-12T02:22:21.783Z,98688.31
2022-09-12T02:23:30.520Z,98689.13
2022-09-12T02:24:41.429Z,98687.01
2022-09-12T02:25:48.852Z,98685.48
2022-09-12T02:26:58.633Z,98687.01
2022-09-12T02:28:10.146Z,98687.35
2022-09-12T02:29:16.429Z,98686.42
2022-09-12T02:30:23.508Z,98685.31
2022-09-12T02:31:41.102Z,98682.69
2022-09-12T02:33:02.822Z,98685.64
2022-09-12T02:34:40.838Z,98686.74
2022-09-12T02:35:57.179Z,98683.12
2022-09-12T02:37:22.068Z,98684.44
2022-09-12T02:38:34.128Z,98683.94
2022-09-12T02:39:44.960Z,98681.52
2022-09-12T02:40:52.252Z,98684.05
2022-09-12T02:42:01.312Z,98684.77
2022-09-12T02:43:08.439Z,98681.05
2022-09-12T02:44:16.317Z,98681.59
2022-09-12T02:45:27.038Z,98682.98
2022-09-12T02:46:43.293Z,98682.70
2022-09-12T02:47:50.027Z,98685.88
2022-09-12T02:48:55.869Z,98684.30
2022-09-12T02:50:01.955Z,98685.02
2022-09-12T02:51:08.722Z,98682.27
2022-09-12T02:52:17.070Z,98684.57
2022-09-12T02:53:27.055Z,98683.20
2022-09-12T02:54:33.352Z,98680.80
2022-09-12T02:55:42.132Z,98683.21
2022-09-12T02:56:48.708Z,98684.30
2022-09-12T02:57:58.685Z,98685.90
2022-09-12T02:59:11.441Z,98689.33
2022-09-12T03:00:18.343Z,98695.41
2022-09-12T03:02:16.218Z,98695.91
2022-09-12T03:04:13.871Z,98699.45
2022-09-12T03:05:31.181Z,98702.73
2022-09-12T03:06:54.326Z,98703.08
2022-09-12T03:08:36.151Z,98707.49
2022-09-12T03:09:47.474Z,98714.91
2022-09-12T03:11:19.490Z,98717.77
2022-09-12T03:12:45.268Z,98719.34
2022-09-12T03:14:36.286Z,98720.30
2022-09-12T03:16:18.406Z,98722.25
2022-09-12T03:17:37.918Z,98727.21
2022-09-12T03:18:57.677Z,98734.26
2022-09-12T03:20:22.960Z,98732.23
2022-09-12T03:22:05.915Z,98730.96
2022-09-12T03:23:40.239Z,98727.83
2022-09-12T03:25:16.257Z,98730.27
2022-09-12T03:26:27.090Z,98728.67
2022-09-12T03:27:39.197Z,98727.63
2022-09-12T03:28:46.048Z,98732.52
2022-09-12T03:29:53.513Z,98730.99
2022-09-12T03:31:00.484Z,98730.50
2022-09-12T03:32:09.307Z,98730.53
2022-09-12T03:33:21.962Z,98728.52
2022-09-12T03:34:28.683Z,98730.46
2022-09-12T03:35:34.560Z,98730.16
2022-09-12T03:36:42.308Z,98729.34
2022-09-12T03:37:49.176Z,98729.34
2022-09-12T03:38:56.128Z,98728.19
2022-09-12T03:40:01.826Z,98727.95
2022-09-12T03:41:08.189Z,98727.23
2022-09-12T03:42:14.192Z,98728.23
2022-09-12T03:43:21.739Z,98730.42
2022-09-12T03:44:29.776Z,98729.93
2022-09-12T03:45:36.336Z,98732.06
2022-09-12T03:46:42.825Z,98733.49
2022-09-12T03:47:51.509Z,98736.66
2022-09-12T03:48:57.632Z,98736.73
2022-09-12T03:50:05.002Z,98736.95
2022-09-12T03:51:11.519Z,98735.27
2022-09-12T03:52:17.459Z,98738.55
2022-09-12T03:53:24.974Z,98739.47
2022-09-12T03:54:32.178Z,98741.11
2022-09-12T03:55:39.422Z,98744.05
2022-09-12T03:56:44.925Z,98742.67
2022-09-12T03:57:53.177Z,98742.85
2022-09-12T03:59:00.427Z,98747.59
2022-09-12T04:00:09.231Z,98750.98
2022-09-12T04:01:23.023Z,98753.43
2022-09-12T04:02:29.154Z,98755.21
2022-09-12T04:03:37.889Z,98756.92
2022-09-12T04:04:49.818Z,98757.48
2022-09-12T04:05:59.345Z,98756.83
2022-09-12T04:07:05.734Z,98757.75
2022-09-12T04:08:13.606Z,98756.92
2022-09-12T04:09:20.597Z,98756.77
2022-09-12T04:10:27.987Z,98754.52
2022-09-12T04:11:34.187Z,98755.71
2022-09-12T04:12:40.967Z,98753.26
2022-09-12T04:13:48.345Z,98754.13
2022-09-12T04:14:54.647Z,98752.85
2022-09-12T04:16:08.684Z,98753.98
2022-09-12T04:17:16.559Z,98754.03
2022-09-12T04:18:30.543Z,98754.15
2022-09-12T04:19:44.625Z,98759.21
2022-09-12T04:20:53.204Z,98763.16
2022-09-12T04:22:02.972Z,98763.09
2022-09-12T04:23:11.071Z,98761.34
2022-09-12T04:24:20.736Z,98760.19
2022-09-12T04:25:29.369Z,98756.80
2022-09-12T04:26:37.222Z,98757.39
2022-09-12T04:27:44.868Z,98754.16
2022-09-12T04:28:56.204Z,98750.73
2022-09-12T04:30:05.772Z,98749.73
2022-09-12T04:31:22.820Z,98749.89
2022-09-12T04:32:35.356Z,98751.64
2022-09-12T04:33:43.097Z,98751.63
2022-09-12T04:34:51.298Z,98755.57
2022-09-12T04:36:05.707Z,98752.73
2022-09-12T04:37:13.253Z,98750.64
2022-09-12T04:38:23.791Z,98748.89
2022-09-12T04:39:31.245Z,98744.84
2022-09-12T04:40:39.512Z,98743.59
2022-09-12T04:41:57.966Z,98741.02
2022-09-12T04:43:10.132Z,98739.41
2022-09-12T04:44:21.653Z,98736.13
2022-09-12T04:45:36.111Z,98729.42
2022-09-12T04:46:47.567Z,98729.68
2022-09-12T04:47:55.762Z,98732.98
2022-09-12T04:49:03.463Z,98734.24
2022-09-12T04:50:13.213Z,98734.02
2022-09-12T04:51:24.093Z,98735.16
2022-09-12T04:52:53.844Z,98736.36
2022-09-12T04:54:03.704Z,98737.83
2022-09-12T04:55:11.381Z,98737.83
2022-09-12T04:56:21.552Z,98739.66
2022-09-12T04:57:29.243Z,98737.70
2022-09-12T04:58:38.222Z,98737.63
2022-09-12T04:59:47.596Z,98736.77
2022-09-12T05:00:55.449Z,98738.50
2022-09-12T05:02:03.631Z,98738.60
2022-09-12T05:03:11.563Z,98736.80
2022-09-12T05:04:18.708Z,98734.39
2022-09-12T05:05:26.789Z,98733.34
2022-09-12T05:06:39.743Z,98730.17
2022-09-12T05:07:48.779Z,98732.29
2022-09-12T05:08:57.210Z,98733.54
2022-09-12T05:10:05.499Z,98732.98
2022-09-12T05:11:25.592Z,98730.52
2022-09-12T05:12:33.411Z,98729.70
2022-09-12T05:13:40.136Z,98729.48
2022-09-12T05:14:47.325Z,98730.95
2022-09-12T05:16:02.078Z,98729.25
2022-09-12T05:17:09.051Z,98732.15
2022-09-12T05:18:16.643Z,98733.23
2022-09-12T05:19:28.350Z,98733.14
2022-09-12T05:20:36.901Z,98730.72
2022-09-12T05:21:43.942Z,98731.20
2022-09-12T05:22:52.087Z,98729.47
2022-09-12T05:24:01.084Z,98731.65
2022-09-12T05:25:10.039Z,98731.27
2022-09-12T05:26:20.112Z,98727.67
2022-09-12T05:27:27.513Z,98726.11
2022-09-12T05:28:38.476Z,98726.91
2022-09-12T05:29:45.168Z,98724.63
2022-09-12T05:31:16.907Z,98723.22
2022-09-12T05:32:24.082Z,98724.58
2022-09-12T05:33:30.996Z,98729.88
2022-09-12T05:34:38.589Z,98733.76
2022-09-12T05:35:49.434Z,98732.13
2022-09-12T05:36:59.529Z,98732.95
2022-09-12T05:38:09.294Z,98732.04
2022-09-12T05:39:19.438Z,98734.27
2022-09-12T05:40:27.810Z,98732.70
2022-09-12T05:41:35.525Z,98735.92
2022-09-12T05:42:43.293Z,98738.48
2022-09-12T05:43:57.178Z,98735.05
2022-09-12T05:45:07.790Z,98736.14
2022-09-12T05:46:17.435Z,98737.23
2022-09-12T05:47:25.807Z,98736.52
2022-09-12T05:48:35.141Z,98732.85
2022-09-12T05:49:43.015Z,98734.44
2022-09-12T05:50:51.389Z,98732.85
2022-09-12T05:51:58.832Z,98735.30
2022-09-12T05:53:10.229Z,98734.70
2022-09-12T05:54:21.602Z,98736.23
2022-09-12T05:55:28.939Z,98735.36
2022-09-12T05:56:35.900Z,98736.66
2022-09-12T05:57:42.829Z,98735.80
2022-09-12T05:58:55.427Z,98735.86
2022-09-12T06:00:03.650Z,98738.59
2022-09-12T06:01:19.612Z,98737.54
2022-09-12T06:02:28.224Z,98737.96
2022-09-12T06:03:34.722Z,98736.43
2022-09-12T06:04:44.845Z,98734.52
2022-09-12T06:05:52.204Z,98733.92
2022-09-12T06:07:01.138Z,98732.46
2022-09-12T06:08:07.822Z,98738.02
2022-09-12T06:09:15.300Z,98734.80
2022-09-12T06:10:27.574Z,98735.41
2022-09-12T06:11:36.385Z,98734.65
2022-09-12T06:12:45.254Z,98733.95
2022-09-12T06:13:53.471Z,98732.21
2022-09-12T06:15:00.694Z,98731.84
2022-09-12T06:16:17.034Z,98733.15
2022-09-12T06:17:24.349Z,98732.66
2022-09-12T06:18:31.226Z,98729.83
2022-09-12T06:19:36.983Z,98728.40
2022-09-12T06:20:43.444Z,98731.63
2022-09-12T06:21:50.548Z,98733.05
2022-09-12T06:23:00.315Z,98727.48
2022-09-12T06:24:08.785Z,98728.26
2022-09-12T06:25:15.215Z,98726.67
2022-09-12T06:26:26.431Z,98723.66
2022-09-12T06:27:36.525Z,98722.91
2022-09-12T06:28:45.995Z,98719.85
2022-09-12T06:29:53.546Z,98721.81
2022-09-12T06:31:13.177Z,98719.85
2022-09-12T06:32:20.270Z,98722.71
2022-09-12T06:33:27.713Z,98721.58
2022-09-12T06:34:34.725Z,98716.66
2022-09-12T06:35:40.948Z,98716.59
2022-09-12T06:36:49.992Z,98719.60
2022-09-12T06:37:56.174Z,98720.41
2022-09-12T06:39:11.727Z,98718.45
2022-09-12T06:40:18.506Z,98718.00
2022-09-12T06:41:27.890Z,98713.26
2022-09-12T06:42:34.367Z,98710.92
2022-09-12T06:43:41.556Z,98707.54
2022-09-12T06:44:51.406Z,98709.39
2022-09-12T06:45:57.477Z,98707.15
2022-09-12T06:47:03.688Z,98713.59
2022-09-12T06:48:09.618Z,98710.19
2022-09-12T06:49:16.102Z,98711.98
2022-09-12T06:50:22.699Z,98713.18
2022-09-12T06:51:29.020Z,98712.69
2022-09-12T06:52:35.525Z,98713.95
2022-09-12T06:53:41.670Z,98718.31
2022-09-12T06:54:47.968Z,98715.23
2022-09-12T06:56:03.779Z,98716.33
2022-09-12T06:57:10.114Z,98716.75
2022-09-12T06:58:16.794Z,98721.34
2022-09-12T06:59:24.210Z,98719.75
2022-09-12T07:00:30.198Z,98719.81
2022-09-12T07:01:36.620Z,98720.52
2022-09-12T07:02:42.823Z,98720.84
2022-09-12T07:03:53.937Z,98723.56
2022-09-12T07:05:01.871Z,98726.45
2022-09-12T07:06:12.510Z,98723.05
2022-09-12T07:07:19.114Z,98721.86
2022-09-12T07:08:26.751Z,98719.84
2022-09-12T07:09:32.885Z,98718.58
2022-09-12T07:10:38.978Z,98717.80
2022-09-12T07:11:45.609Z,98718.30
2022-09-12T07:12:53.136Z,98719.84
2022-09-12T07:14:00.114Z,98718.13
2022-09-12T07:15:06.652Z,98716.02
2022-09-12T07:16:17.242Z,98716.11
2022-09-12T07:17:26.016Z,98715.58
2022-09-12T07:18:32.276Z,98714.10
2022-09-12T07:19:38.621Z,98715.09
2022-09-12T07:20:44.782Z,98711.25
2022-09-12T07:21:53.245Z,98711.46
2022-09-12T07:23:03.526Z,98713.98
2022-09-12T07:24:10.540Z,98711.88
2022-09-12T07:25:18.163Z,98713.42
2022-09-12T07:26:23.649Z,98714.17
2022-09-12T07:27:29.461Z,98710.67
2022-09-12T07:28:35.624Z,98711.93
2022-09-12T07:29:42.030Z,98707.99
2022-09-12T07:30:48.161Z,98709.48
2022-09-12T07:31:54.195Z,98708.17
2022-09-12T07:33:01.422Z,98711.42
2022-09-12T07:34:08.627Z,98713.13
2022-09-12T07:35:17.422Z,98713.23
2022-09-12T07:36:24.437Z,98712.20
2022-09-12T07:37:33.623Z,98713.50
2022-09-12T07:38:40.849Z,98712.76
2022-09-12T07:39:47.930Z,98711.17
2022-09-12T07:40:54.130Z,98712.16
2022-09-12T07:42:01.219Z,98713.86
2022-09-12T07:43:10.234Z,98710.58
2022-09-12T07:44:17.258Z,98709.38
2022-09-12T07:45:24.451Z,98709.59
2022-09-12T07:46:33.093Z,98712.87
2022-09-12T07:47:41.533Z,98706.64
2022-09-12T07:48:52.235Z,98706.80
2022-09-12T07:49:59.528Z,98706.13
2022-09-12T07:51:08.267Z,98706.17
2022-09-12T07:52:15.081Z,98705.84
2022-09-12T07:53:22.083Z,98706.67
2022-09-12T07:54:29.226Z,98702.23
2022-09-12T07:55:35.622Z,98703.42
2022-09-12T07:56:41.866Z,98703.56
2022-09-12T07:57:52.549Z,98700.45
2022-09-12T07:58:58.432Z,98704.52
2022-09-12T08:00:05.033Z,98703.27
2022-09-12T08:01:20.367Z,98699.16
2022-09-12T08:02:31.904Z,98696.87
2022-09-12T08:03:45.318Z,98696.02
2022-09-12T08:04:52.369Z,98694.27
2022-09-12T08:06:25.670Z,98694.25
2022-09-12T08:07:32.608Z,98693.14
2022-09-12T08:08:41.590Z,98693.78
2022-09-12T08:09:48.181Z,98691.38
2022-09-12T08:10:59.188Z,98691.27
2022-09-12T08:12:05.142Z,98692.55
2022-09-12T08:13:11.188Z,98691.56
2022-09-12T08:14:18.327Z,98692.38
2022-09-12T08:15:24.483Z,98694.77
2022-09-12T08:16:32.059Z,98690.89
2022-09-12T08:17:38.301Z,98692.40
2022-09-12T08:18:45.203Z,98690.21
2022-09-12T08:19:52.182Z,98691.63
2022-09-12T08:21:01.234Z,98689.11
2022-09-12T08:22:09.262Z,98689.12
2022-09-12T08:23:17.440Z,98691.88
2022-09-12T08:24:23.408Z,98689.31
2022-09-12T08:25:29.348Z,98688.04
2022-09-12T08:26:35.595Z,98688.47
2022-09-12T08:27:41.688Z,98687.02
2022-09-12T08:28:47.941Z,98687.40
2022-09-12T08:29:54.717Z,98685.31
2022-09-12T08:31:11.635Z,98682.97
2022-09-12T08:32:18.795Z,98685.41
2022-09-12T08:33:27.784Z,98684.10
2022-09-12T08:34:34.133Z,98684.64
2022-09-12T08:35:40.507Z,98683.16
2022-09-12T08:36:46.669Z,98682.51
2022-09-12T08:37:53.463Z,98684.59
2022-09-12T08:39:05.569Z,98684.59
2022-09-12T08:40:16.945Z,98681.69
2022-09-12T08:41:35.690Z,98685.20
2022-09-12T08:42:56.789Z,98682.10
2022-09-12T08:44:10.140Z,98680.45
2022-09-12T08:45:49.915Z,98681.02
2022-09-12T08:47:11.439Z,98677.69
2022-09-12T08:48:18.723Z,98675.30
2022-09-12T08:50:07.491Z,98676.66
2022-09-12T08:51:15.513Z,98673.30
2022-09-12T08:52:24.252Z,98673.21
2022-09-12T08:53:31.176Z,98674.52
2022-09-12T08:54:38.694Z,98676.71
2022-09-12T08:55:45.755Z,98675.75
2022-09-12T08:56:52.426Z,98672.27
2022-09-12T08:58:01.252Z,98672.92
2022-09-12T08:59:06.989Z,98674.30
2022-09-12T09:00:14.790Z,98673.73
2022-09-12T09:01:42.841Z,98669.10
2022-09-12T09:03:18.243Z,98666.98
2022-09-12T09:04:36.153Z,98666.94
2022-09-12T09:06:34.532Z,98665.70
2022-09-12T09:09:34.205Z,98667.50
2022-09-12T09:10:55.245Z,98666.03
2022-09-12T09:12:11.427Z,98666.52
2022-09-12T09:13:41.898Z,98669.64
2022-09-12T09:15:25.688Z,98671.33
2022-09-12T09:16:42.316Z,98668.33
2022-09-12T09:18:14.238Z,98670.62
2022-09-12T09:19:50.941Z,98669.03
2022-09-12T09:21:05.434Z,98668.77
2022-09-12T09:22:16.463Z,98668.27
2022-09-12T09:23:42.061Z,98669.30
2022-09-12T09:24:51.040Z,98665.60
2022-09-12T09:26:01.500Z,98667.13
2022-09-12T09:27:36.785Z,98665.77
2022-09-12T09:29:27.209Z,98666.70
2022-09-12T09:30:36.313Z,98666.25
2022-09-12T09:31:42.922Z,98667.84
2022-09-12T09:33:02.027Z,98668.94
2022-09-12T09:34:32.733Z,98667.84
2022-09-12T09:35:49.680Z,98667.02
2022-09-12T09:37:02.990Z,98666.36
2022-09-12T09:38:38.750Z,98665.03
2022-09-12T09:40:24.434Z,98664.05
2022-09-12T09:41:54.777Z,98661.98
2022-09-12T09:43:26.777Z,98663.52
2022-09-12T09:44:33.969Z,98662.61
2022-09-12T09:45:42.343Z,98663.11
2022-09-12T09:46:54.242Z,98663.67
2022-09-12T09:48:36.153Z,98662.05
2022-09-12T09:49:42.346Z,98659.98
2022-09-12T09:50:49.697Z,98659.27
2022-09-12T09:51:58.856Z,98661.28
2022-09-12T09:53:14.173Z,98655.52
2022-09-12T09:54:27.770Z,98652.14
2022-09-12T09:55:38.674Z,98651.90
2022-09-12T09:56:44.841Z,98652.68
2022-09-12T09:57:50.789Z,98654.05
2022-09-12T09:58:59.128Z,98651.38
2022-09-12T10:00:27.573Z,98652.09
2022-09-12T10:01:34.891Z,98652.58
2022-09-12T10:02:40.940Z,98654.30
2022-09-12T10:03:52.028Z,98656.64
2022-09-12T10:04:59.888Z,98657.52
2022-09-12T10:06:28.195Z,98653.11
2022-09-12T10:07:34.663Z,98652.96
2022-09-12T10:08:43.420Z,98654.48
2022-09-12T10:10:20.208Z,98657.10
2022-09-12T10:11:27.468Z,98656.56
2022-09-12T10:12:34.457Z,98657.17
2022-09-12T10:14:06.754Z,98656.46
2022-09-12T10:15:22.154Z,98652.27
2022-09-12T10:16:52.861Z,98654.18
2022-09-12T10:18:00.688Z,98652.66
2022-09-12T10:19:06.782Z,98651.81
2022-09-12T10:20:45.441Z,98654.27
2022-09-12T10:21:56.125Z,98654.36
2022-09-12T10:23:03.189Z,98650.44
2022-09-12T10:24:27.739Z,98645.10
2022-09-12T10:25:33.790Z,98644.39
2022-09-12T10:26:40.005Z,98645.71
2022-09-12T10:27:46.258Z,98644.29
2022-09-12T10:28:55.928Z,98642.75
2022-09-12T10:30:03.844Z,98646.63
2022-09-12T10:31:11.012Z,98647.95
2022-09-12T10:32:39.062Z,98650.23
2022-09-12T10:33:53.785Z,98647.29
2022-09-12T10:35:06.902Z,98651.97
2022-09-12T10:36:15.391Z,98651.48
2022-09-12T10:37:37.011Z,98650.17
2022-09-12T10:38:43.491Z,98652.25
2022-09-12T10:39:57.622Z,98651.81
2022-09-12T10:41:10.173Z,98652.53
2022-09-12T10:42:20.321Z,98651.83
2022-09-12T10:43:33.950Z,98656.02
2022-09-12T10:44:40.249Z,98654.17
2022-09-12T10:45:46.228Z,98655.80
2022-09-12T10:46:52.352Z,98658.69
2022-09-12T10:48:06.796Z,98657.88
2022-09-12T10:49:22.687Z,98656.74
2022-09-12T10:50:30.765Z,98655.92
2022-09-12T10:51:36.928Z,98651.57
2022-09-12T10:52:42.507Z,98649.88
2022-09-12T10:53:51.829Z,98651.40
2022-09-12T10:54:57.587Z,98656.20
2022-09-12T10:56:10.506Z,98652.77
2022-09-12T10:57:34.779Z,98655.73
2022-09-12T10:58:51.926Z,98655.39
2022-09-12T11:00:06.451Z,98654.51
2022-09-12T11:01:19.565Z,98652.38
2022-09-12T11:02:32.520Z,98652.16
2022-09-12T11:04:00.252Z,98651.35
2022-09-12T11:05:24.070Z,98652.50
2022-09-12T11:06:38.551Z,98650.14
2022-09-12T11:08:21.387Z,98650.19
2022-09-12T11:09:57.511Z,98647.61
2022-09-12T11:11:51.513Z,98644.88
2022-09-12T11:13:16.128Z,98646.56
2022-09-12T11:14:49.420Z,98644.05
2022-09-12T11:16:16.478Z,98645.80
2022-09-12T11:17:48.700Z,98645.73
2022-09-12T11:18:58.737Z,98645.68
2022-09-12T11:20:41.988Z,98642.84
2022-09-12T11:22:32.032Z,98645.83
2022-09-12T11:24:01.516Z,98645.55
2022-09-12T11:25:41.761Z,98642.70
2022-09-12T11:27:29.494Z,98643.77
2022-09-12T11:29:12.565Z,98646.56
2022-09-12T11:30:19.737Z,98644.21
2022-09-12T11:32:04.484Z,98646.73
2022-09-12T11:33:33.722Z,98648.30
2022-09-12T11:34:46.697Z,98645.12
2022-09-12T11:35:55.641Z,98646.52
2022-09-12T11:37:30.286Z,98650.13
2022-09-12T11:39:05.340Z,98649.67
2022-09-12T11:40:24.365Z,98653.55
2022-09-12T11:41:39.062Z,98651.77
2022-09-12T11:42:44.968Z,98651.76
2022-09-12T11:44:06.329Z,98649.92
2022-09-12T11:45:18.914Z,98653.52
2022-09-12T11:46:46.657Z,98653.70
2022-09-12T11:47:59.335Z,98651.79
2022-09-12T11:49:14.729Z,98654.58
2022-09-12T11:50:35.801Z,98656.53
2022-09-12T11:52:06.414Z,98658.37
2022-09-12T11:53:18.541Z,98662.36
2022-09-12T11:54:49.098Z,98662.10
2022-09-12T11:56:10.118Z,98664.50
2022-09-12T11:57:49.784Z,98662.59
2022-09-12T11:59:00.359Z,98661.29
2022-09-12T12:00:23.449Z,98666.30
2022-09-12T12:01:43.845Z,98658.13
2022-09-12T12:03:11.065Z,98657.96
2022-09-12T12:04:21.904Z,98659.22
2022-09-12T12:05:53.212Z,98658.39
2022-09-12T12:07:08.062Z,98657.58
2022-09-12T12:08:15.112Z,98659.45
2022-09-12T12:09:22.856Z,98661.84
2022-09-12T12:10:45.349Z,98663.21
2022-09-12T12:11:54.571Z,98662.45
2022-09-12T12:13:03.073Z,98664.42
2022-09-12T12:14:23.140Z,98666.45
2022-09-12T12:15:33.325Z,98666.02
2022-09-12T12:16:40.133Z,98666.69
2022-09-12T12:17:48.373Z,98664.40
2022-09-12T12:18:57.683Z,98667.89
2022-09-12T12:20:10.422Z,98670.94
2022-09-12T12:21:40.851Z,98665.82
2022-09-12T12:22:54.430Z,98669.30
2022-09-12T12:24:10.037Z,98667.67
2022-09-12T12:25:21.314Z,98665.77
2022-09-12T12:26:45.733Z,98667.25
2022-09-12T12:27:54.731Z,98669.11
2022-09-12T12:29:02.191Z,98670.86
2022-09-12T12:30:33.254Z,98673.55
2022-09-12T12:32:03.078Z,98675.93
2022-09-12T12:33:13.775Z,98676.04
2022-09-12T12:34:36.819Z,98678.95
2022-09-12T12:35:47.373Z,98682.15
2022-09-12T12:36:54.478Z,98682.90
2022-09-12T12:38:01.042Z,98680.50
2022-09-12T12:39:35.708Z,98680.99
2022-09-12T12:40:41.878Z,98681.83
2022-09-12T12:41:49.509Z,98682.65
2022-09-12T12:43:03.727Z,98680.06
2022-09-12T12:44:48.370Z,98682.23
2022-09-12T12:46:06.842Z,98683.90
2022-09-12T12:47:34.245Z,98680.59
2022-09-12T12:48:58.572Z,98679.14
2022-09-12T12:50:27.830Z,98682.32
2022-09-12T12:51:48.206Z,98677.89
2022-09-12T12:53:15.084Z,98676.64
2022-09-12T12:54:46.966Z,98676.74
2022-09-12T12:55:54.549Z,98675.21
2022-09-12T12:57:24.081Z,98677.52
2022-09-12T12:58:35.944Z,98680.65
2022-09-12T12:59:56.027Z,98680.64
2022-09-12T13:01:26.951Z,98681.10
2022-09-12T13:02:36.415Z,98681.21
2022-09-12T13:03:56.728Z,98681.86
2022-09-12T13:05:07.083Z,98686.11
2022-09-12T13:06:43.707Z,98685.89
2022-09-12T13:07:58.766Z,98687.05
2022-09-12T13:09:09.030Z,98687.31
2022-09-12T13:10:31.560Z,98688.61
2022-09-12T13:11:43.085Z,98688.62
2022-09-12T13:12:51.177Z,98691.43
2022-09-12T13:14:07.803Z,98689.02
2022-09-12T13:15:38.341Z,98689.94
2022-09-12T13:17:02.055Z,98694.73
2022-09-12T13:18:24.817Z,98696.55
2022-09-12T13:19:31.761Z,98695.88
2022-09-12T13:21:02.946Z,98697.55
2022-09-12T13:22:11.084Z,98697.56
2022-09-12T13:23:29.531Z,98697.39
2022-09-12T13:24:37.907Z,98697.52
2022-09-12T13:25:44.007Z,98698.58
2022-09-12T13:26:50.816Z,98694.89
2022-09-12T13:28:20.679Z,98698.04
2022-09-12T13:29:27.792Z,98698.28
2022-09-12T13:31:12.575Z,98699.69
2022-09-12T13:32:22.430Z,98701.30
2022-09-12T13:33:55.460Z,98703.30
2022-09-12T13:35:14.549Z,98706.42
2022-09-12T13:36:35.495Z,98702.91
2022-09-12T13:38:12.941Z,98700.65
2022-09-12T13:39:22.138Z,98701.98
2022-09-12T13:40:53.270Z,98700.32
2022-09-12T13:42:36.152Z,98703.86
2022-09-12T13:43:47.542Z,98703.23
2022-09-12T13:45:24.369Z,98702.34
2022-09-12T13:46:34.572Z,98704.23
2022-09-12T13:47:46.471Z,98705.92
2022-09-12T13:48:52.429Z,98704.36
2022-09-12T13:50:00.282Z,98705.02
2022-09-12T13:51:06.863Z,98706.50
2022-09-12T13:52:44.180Z,98706.18
2022-09-12T13:53:50.128Z,98706.63
2022-09-12T13:54:57.711Z,98706.04
2022-09-12T13:56:05.704Z,98703.42
2022-09-12T13:57:33.241Z,98702.39
2022-09-12T13:58:39.397Z,98707.57
2022-09-12T13:59:48.626Z,98708.93
2022-09-12T14:01:13.647Z,98706.99
2022-09-12T14:02:29.208Z,98711.44
2022-09-12T14:03:59.763Z,98709.04
2022-09-12T14:05:14.948Z,98708.95
2022-09-12T14:06:22.568Z,98707.00
2022-09-12T14:07:29.815Z,98708.60
2022-09-12T14:08:39.218Z,98704.75
2022-09-12T14:09:48.791Z,98702.98
2022-09-12T14:10:55.759Z,98705.81
2022-09-12T14:12:04.813Z,98705.81
2022-09-12T14:13:13.920Z,98704.46
2022-09-12T14:14:44.989Z,98705.70
2022-09-12T14:15:55.682Z,98705.41
2022-09-12T14:17:02.954Z,98705.42
2022-09-12T14:18:24.890Z,98705.85
2022-09-12T14:19:32.965Z,98699.84
2022-09-12T14:20:42.759Z,98699.52
2022-09-12T14:21:52.063Z,98698.39
2022-09-12T14:22:59.107Z,98701.13
2022-09-12T14:24:07.583Z,98700.14
2022-09-12T14:25:24.643Z,98698.80
2022-09-12T14:26:38.232Z,98700.73
2022-09-12T14:27:51.911Z,98700.92
2022-09-12T14:28:58.414Z,98702.16
2022-09-12T14:30:09.570Z,98703.60
2022-09-12T14:31:24.347Z,98703.23
2022-09-12T14:32:32.934Z,98704.94
2022-09-12T14:34:00.942Z,98704.73
2022-09-12T14:35:20.791Z,98704.52
2022-09-12T14:36:39.384Z,98703.38
2022-09-12T14:37:54.317Z,98706.19
2022-09-12T14:39:07.426Z,98704.20
2022-09-12T14:40:24.957Z,98703.58
2022-09-12T14:41:38.879Z,98702.98
2022-09-12T14:42:48.072Z,98700.56